sensor_id;sensor_type;location;lat;lon;timestamp;P1;durP1;ratioP1;P2;durP2;ratioP2
14603;SDS011;7388;51.078;13.740;2022-11-18T00:01:11;17.77;;;11.63;;
14603;SDS011;7388;51.078;13.740;2022-11-18T00:03:39;17.35;;;11.48;;
14603;SDS011;7388;51.078;13.740;2022-11-18T00:06:05;16.02;;;11.13;;
14603;SDS011;7388;51.078;13.740;2022-11-18T00:08:34;17.08;;;11.93;;
14603;SDS011;7388;51.078;13.740;2022-11-18T00:11:07;15.00;;;11.77;;
14603;SDS011;7388;51.078;13.740;2022-11-18T00:13:33;15.65;;;11.82;;
14603;SDS011;7388;51.078;13.740;2022-11-18T00:16:19;13.65;;;11.65;;
14603;SDS011;7388;51.078;13.740;2022-11-18T00:18:45;19.13;;;12.93;;
14603;SDS011;7388;51.078;13.740;2022-11-18T00:21:11;16.47;;;12.07;;
14603;SDS011;7388;51.078;13.740;2022-11-18T00:23:37;17.90;;;12.50;;
14603;SDS011;7388;51.078;13.740;2022-11-18T00:26:04;22.58;;;14.93;;
14603;SDS011;7388;51.078;13.740;2022-11-18T00:28:35;17.35;;;11.77;;
14603;SDS011;7388;51.078;13.740;2022-11-18T00:31:10;19.65;;;13.50;;
14603;SDS011;7388;51.078;13.740;2022-11-18T00:33:38;17.63;;;11.60;;
14603;SDS011;7388;51.078;13.740;2022-11-18T00:36:05;16.77;;;11.95;;
14603;SDS011;7388;51.078;13.740;2022-11-18T00:38:32;17.13;;;12.70;;
14603;SDS011;7388;51.078;13.740;2022-11-18T00:41:05;14.30;;;10.87;;
14603;SDS011;7388;51.078;13.740;2022-11-18T00:43:31;17.08;;;11.98;;
14603;SDS011;7388;51.078;13.740;2022-11-18T00:45:58;18.70;;;13.07;;
14603;SDS011;7388;51.078;13.740;2022-11-18T00:48:24;15.50;;;12.25;;
14603;SDS011;7388;51.078;13.740;2022-11-18T00:50:51;16.25;;;12.80;;
14603;SDS011;7388;51.078;13.740;2022-11-18T00:53:20;18.90;;;12.60;;
14603;SDS011;7388;51.078;13.740;2022-11-18T00:55:47;17.15;;;12.00;;
14603;SDS011;7388;51.078;13.740;2022-11-18T00:58:13;18.87;;;14.47;;
14603;SDS011;7388;51.078;13.740;2022-11-18T01:00:42;16.30;;;12.43;;
14603;SDS011;7388;51.078;13.740;2022-11-18T01:03:10;23.85;;;15.15;;
14603;SDS011;7388;51.078;13.740;2022-11-18T01:05:37;15.25;;;12.32;;
14603;SDS011;7388;51.078;13.740;2022-11-18T01:08:03;18.40;;;12.73;;
14603;SDS011;7388;51.078;13.740;2022-11-18T01:10:34;17.50;;;11.73;;
14603;SDS011;7388;51.078;13.740;2022-11-18T01:13:00;18.98;;;11.60;;
14603;SDS011;7388;51.078;13.740;2022-11-18T01:18:17;20.73;;;12.55;;
14603;SDS011;7388;51.078;13.740;2022-11-18T01:20:44;14.20;;;12.20;;
14603;SDS011;7388;51.078;13.740;2022-11-18T01:23:11;16.70;;;12.02;;
14603;SDS011;7388;51.078;13.740;2022-11-18T01:25:38;20.05;;;12.82;;
14603;SDS011;7388;51.078;13.740;2022-11-18T01:28:05;16.83;;;12.77;;
14603;SDS011;7388;51.078;13.740;2022-11-18T01:30:32;19.17;;;13.20;;
14603;SDS011;7388;51.078;13.740;2022-11-18T01:32:59;20.05;;;13.25;;
14603;SDS011;7388;51.078;13.740;2022-11-18T01:35:25;17.27;;;12.55;;
14603;SDS011;7388;51.078;13.740;2022-11-18T01:37:50;19.73;;;12.00;;
14603;SDS011;7388;51.078;13.740;2022-11-18T01:40:16;16.90;;;12.47;;
14603;SDS011;7388;51.078;13.740;2022-11-18T01:42:42;19.07;;;13.13;;
14603;SDS011;7388;51.078;13.740;2022-11-18T01:48:07;15.73;;;11.50;;
14603;SDS011;7388;51.078;13.740;2022-11-18T01:50:42;16.67;;;11.98;;
14603;SDS011;7388;51.078;13.740;2022-11-18T01:53:11;17.05;;;12.05;;
14603;SDS011;7388;51.078;13.740;2022-11-18T01:55:51;19.75;;;12.57;;
14603;SDS011;7388;51.078;13.740;2022-11-18T01:58:22;18.70;;;12.55;;
14603;SDS011;7388;51.078;13.740;2022-11-18T02:00:53;19.70;;;12.52;;
14603;SDS011;7388;51.078;13.740;2022-11-18T02:03:19;18.90;;;12.10;;
14603;SDS011;7388;51.078;13.740;2022-11-18T02:05:46;17.48;;;11.93;;
14603;SDS011;7388;51.078;13.740;2022-11-18T02:08:14;13.25;;;9.80;;
14603;SDS011;7388;51.078;13.740;2022-11-18T02:10:42;15.82;;;11.48;;
14603;SDS011;7388;51.078;13.740;2022-11-18T02:13:08;18.07;;;11.87;;
14603;SDS011;7388;51.078;13.740;2022-11-18T02:15:43;16.63;;;12.00;;
14603;SDS011;7388;51.078;13.740;2022-11-18T02:18:14;18.88;;;11.82;;
14603;SDS011;7388;51.078;13.740;2022-11-18T02:20:45;14.57;;;11.85;;
14603;SDS011;7388;51.078;13.740;2022-11-18T02:26:11;17.70;;;11.35;;
14603;SDS011;7388;51.078;13.740;2022-11-18T02:34:31;17.40;;;12.10;;
14603;SDS011;7388;51.078;13.740;2022-11-18T02:36:59;15.00;;;10.70;;
14603;SDS011;7388;51.078;13.740;2022-11-18T02:39:46;17.80;;;11.85;;
14603;SDS011;7388;51.078;13.740;2022-11-18T02:42:45;13.43;;;10.60;;
14603;SDS011;7388;51.078;13.740;2022-11-18T02:45:20;16.77;;;11.73;;
14603;SDS011;7388;51.078;13.740;2022-11-18T02:47:46;16.38;;;11.00;;
14603;SDS011;7388;51.078;13.740;2022-11-18T02:50:15;15.90;;;11.15;;
14603;SDS011;7388;51.078;13.740;2022-11-18T02:52:45;15.13;;;10.90;;
14603;SDS011;7388;51.078;13.740;2022-11-18T02:55:13;16.08;;;11.43;;
14603;SDS011;7388;51.078;13.740;2022-11-18T02:57:42;22.40;;;11.98;;
14603;SDS011;7388;51.078;13.740;2022-11-18T03:00:09;16.30;;;11.50;;
14603;SDS011;7388;51.078;13.740;2022-11-18T03:02:42;13.68;;;10.82;;
14603;SDS011;7388;51.078;13.740;2022-11-18T03:05:15;15.52;;;11.60;;
14603;SDS011;7388;51.078;13.740;2022-11-18T03:08:21;14.27;;;10.60;;
14603;SDS011;7388;51.078;13.740;2022-11-18T03:10:51;17.15;;;10.70;;
14603;SDS011;7388;51.078;13.740;2022-11-18T03:13:27;13.15;;;10.65;;
14603;SDS011;7388;51.078;13.740;2022-11-18T03:16:06;13.95;;;10.32;;
14603;SDS011;7388;51.078;13.740;2022-11-18T03:18:49;16.17;;;11.25;;
14603;SDS011;7388;51.078;13.740;2022-11-18T03:21:23;15.05;;;10.50;;
14603;SDS011;7388;51.078;13.740;2022-11-18T03:24:02;15.18;;;10.82;;
14603;SDS011;7388;51.078;13.740;2022-11-18T03:26:39;14.45;;;10.90;;
14603;SDS011;7388;51.078;13.740;2022-11-18T03:29:16;13.43;;;9.50;;
14603;SDS011;7388;51.078;13.740;2022-11-18T03:32:09;13.85;;;10.27;;
14603;SDS011;7388;51.078;13.740;2022-11-18T03:34:43;14.27;;;10.77;;
14603;SDS011;7388;51.078;13.740;2022-11-18T03:37:13;13.50;;;9.43;;
14603;SDS011;7388;51.078;13.740;2022-11-18T03:39:42;15.93;;;9.93;;
14603;SDS011;7388;51.078;13.740;2022-11-18T03:42:34;14.82;;;10.38;;
14603;SDS011;7388;51.078;13.740;2022-11-18T03:45:18;13.77;;;10.05;;
14603;SDS011;7388;51.078;13.740;2022-11-18T03:48:18;13.82;;;10.07;;
14603;SDS011;7388;51.078;13.740;2022-11-18T03:50:52;20.02;;;11.45;;
14603;SDS011;7388;51.078;13.740;2022-11-18T03:53:24;22.13;;;11.73;;
14603;SDS011;7388;51.078;13.740;2022-11-18T03:55:54;14.75;;;11.18;;
14603;SDS011;7388;51.078;13.740;2022-11-18T03:58:27;17.95;;;10.50;;
14603;SDS011;7388;51.078;13.740;2022-11-18T04:00:58;14.90;;;11.80;;
14603;SDS011;7388;51.078;13.740;2022-11-18T04:03:32;17.45;;;12.05;;
14603;SDS011;7388;51.078;13.740;2022-11-18T04:06:02;17.77;;;12.00;;
14603;SDS011;7388;51.078;13.740;2022-11-18T04:08:34;18.58;;;12.50;;
14603;SDS011;7388;51.078;13.740;2022-11-18T04:11:20;19.27;;;12.57;;
14603;SDS011;7388;51.078;13.740;2022-11-18T04:14:09;15.80;;;11.38;;
14603;SDS011;7388;51.078;13.740;2022-11-18T04:16:38;16.38;;;12.00;;
14603;SDS011;7388;51.078;13.740;2022-11-18T04:19:07;18.70;;;12.55;;
14603;SDS011;7388;51.078;13.740;2022-11-18T04:21:33;16.15;;;12.73;;
14603;SDS011;7388;51.078;13.740;2022-11-18T04:23:59;18.30;;;13.07;;
14603;SDS011;7388;51.078;13.740;2022-11-18T04:26:25;17.10;;;13.55;;
14603;SDS011;7388;51.078;13.740;2022-11-18T04:28:51;19.27;;;14.10;;
14603;SDS011;7388;51.078;13.740;2022-11-18T04:31:16;19.97;;;13.53;;
14603;SDS011;7388;51.078;13.740;2022-11-18T04:33:42;17.53;;;12.77;;
14603;SDS011;7388;51.078;13.740;2022-11-18T04:36:08;17.57;;;13.60;;
14603;SDS011;7388;51.078;13.740;2022-11-18T04:38:33;19.53;;;12.90;;
14603;SDS011;7388;51.078;13.740;2022-11-18T04:40:59;18.13;;;12.97;;
14603;SDS011;7388;51.078;13.740;2022-11-18T04:43:25;20.40;;;14.90;;
14603;SDS011;7388;51.078;13.740;2022-11-18T04:45:51;18.17;;;12.77;;
14603;SDS011;7388;51.078;13.740;2022-11-18T04:48:16;21.10;;;14.57;;
14603;SDS011;7388;51.078;13.740;2022-11-18T04:50:43;19.70;;;14.05;;
14603;SDS011;7388;51.078;13.740;2022-11-18T04:53:09;19.60;;;14.63;;
14603;SDS011;7388;51.078;13.740;2022-11-18T04:55:35;16.90;;;12.43;;
14603;SDS011;7388;51.078;13.740;2022-11-18T04:58:01;18.83;;;12.50;;
14603;SDS011;7388;51.078;13.740;2022-11-18T05:00:27;18.70;;;13.30;;
14603;SDS011;7388;51.078;13.740;2022-11-18T05:02:53;20.93;;;14.50;;
14603;SDS011;7388;51.078;13.740;2022-11-18T05:05:19;20.40;;;13.43;;
14603;SDS011;7388;51.078;13.740;2022-11-18T05:07:44;21.10;;;13.60;;
14603;SDS011;7388;51.078;13.740;2022-11-18T05:10:10;23.23;;;13.13;;
14603;SDS011;7388;51.078;13.740;2022-11-18T05:12:36;20.60;;;14.70;;
14603;SDS011;7388;51.078;13.740;2022-11-18T05:15:17;16.63;;;13.63;;
14603;SDS011;7388;51.078;13.740;2022-11-18T05:17:44;20.23;;;12.45;;
14603;SDS011;7388;51.078;13.740;2022-11-18T05:20:11;19.80;;;14.32;;
14603;SDS011;7388;51.078;13.740;2022-11-18T05:22:37;19.83;;;12.35;;
14603;SDS011;7388;51.078;13.740;2022-11-18T05:25:04;21.67;;;13.43;;
14603;SDS011;7388;51.078;13.740;2022-11-18T05:27:30;18.73;;;12.32;;
14603;SDS011;7388;51.078;13.740;2022-11-18T05:29:56;20.43;;;13.87;;
14603;SDS011;7388;51.078;13.740;2022-11-18T05:32:22;18.60;;;13.20;;
14603;SDS011;7388;51.078;13.740;2022-11-18T05:34:47;19.67;;;13.20;;
14603;SDS011;7388;51.078;13.740;2022-11-18T05:37:13;19.73;;;12.23;;
14603;SDS011;7388;51.078;13.740;2022-11-18T05:39:39;19.17;;;12.03;;
14603;SDS011;7388;51.078;13.740;2022-11-18T05:42:05;17.50;;;12.90;;
14603;SDS011;7388;51.078;13.740;2022-11-18T05:44:49;18.27;;;14.68;;
14603;SDS011;7388;51.078;13.740;2022-11-18T05:47:16;20.55;;;12.88;;
14603;SDS011;7388;51.078;13.740;2022-11-18T05:49:42;17.55;;;13.73;;
14603;SDS011;7388;51.078;13.740;2022-11-18T05:52:08;23.00;;;14.70;;
14603;SDS011;7388;51.078;13.740;2022-11-18T05:54:34;18.63;;;12.47;;
14603;SDS011;7388;51.078;13.740;2022-11-18T05:57:06;18.83;;;13.50;;
14603;SDS011;7388;51.078;13.740;2022-11-18T05:59:31;19.13;;;13.20;;
14603;SDS011;7388;51.078;13.740;2022-11-18T06:01:58;19.10;;;12.43;;
14603;SDS011;7388;51.078;13.740;2022-11-18T06:04:47;19.35;;;12.93;;
14603;SDS011;7388;51.078;13.740;2022-11-18T06:07:19;18.35;;;11.75;;
14603;SDS011;7388;51.078;13.740;2022-11-18T06:09:58;21.13;;;13.35;;
14603;SDS011;7388;51.078;13.740;2022-11-18T06:12:26;18.45;;;12.05;;
14603;SDS011;7388;51.078;13.740;2022-11-18T06:15:05;19.17;;;13.00;;
14603;SDS011;7388;51.078;13.740;2022-11-18T06:17:47;19.00;;;13.60;;
14603;SDS011;7388;51.078;13.740;2022-11-18T06:20:37;18.85;;;12.10;;
14603;SDS011;7388;51.078;13.740;2022-11-18T06:23:05;17.13;;;12.05;;
14603;SDS011;7388;51.078;13.740;2022-11-18T06:25:31;25.70;;;12.37;;
14603;SDS011;7388;51.078;13.740;2022-11-18T06:27:58;18.60;;;10.93;;
14603;SDS011;7388;51.078;13.740;2022-11-18T06:30:26;20.73;;;11.52;;
14603;SDS011;7388;51.078;13.740;2022-11-18T06:32:52;19.10;;;11.65;;
14603;SDS011;7388;51.078;13.740;2022-11-18T06:35:18;16.97;;;12.30;;
14603;SDS011;7388;51.078;13.740;2022-11-18T06:37:43;16.53;;;12.37;;
14603;SDS011;7388;51.078;13.740;2022-11-18T06:40:10;15.68;;;10.98;;
14603;SDS011;7388;51.078;13.740;2022-11-18T06:42:36;19.70;;;12.05;;
14603;SDS011;7388;51.078;13.740;2022-11-18T06:45:20;17.20;;;12.02;;
14603;SDS011;7388;51.078;13.740;2022-11-18T06:47:46;18.47;;;12.07;;
14603;SDS011;7388;51.078;13.740;2022-11-18T06:50:12;19.50;;;13.00;;
14603;SDS011;7388;51.078;13.740;2022-11-18T06:52:38;17.90;;;11.77;;
14603;SDS011;7388;51.078;13.740;2022-11-18T06:55:04;17.50;;;11.40;;
14603;SDS011;7388;51.078;13.740;2022-11-18T06:57:32;18.25;;;11.93;;
14603;SDS011;7388;51.078;13.740;2022-11-18T06:59:58;19.20;;;12.57;;
14603;SDS011;7388;51.078;13.740;2022-11-18T07:02:24;18.20;;;11.53;;
14603;SDS011;7388;51.078;13.740;2022-11-18T07:04:50;21.50;;;13.10;;
14603;SDS011;7388;51.078;13.740;2022-11-18T07:07:16;16.77;;;11.67;;
14603;SDS011;7388;51.078;13.740;2022-11-18T07:09:41;21.53;;;12.83;;
14603;SDS011;7388;51.078;13.740;2022-11-18T07:12:07;20.67;;;12.63;;
14603;SDS011;7388;51.078;13.740;2022-11-18T07:14:33;18.33;;;13.30;;
14603;SDS011;7388;51.078;13.740;2022-11-18T07:16:59;17.80;;;12.33;;
14603;SDS011;7388;51.078;13.740;2022-11-18T07:19:24;19.10;;;12.70;;
14603;SDS011;7388;51.078;13.740;2022-11-18T07:21:50;15.83;;;11.43;;
14603;SDS011;7388;51.078;13.740;2022-11-18T07:24:16;17.87;;;12.13;;
14603;SDS011;7388;51.078;13.740;2022-11-18T07:26:42;20.47;;;13.10;;
14603;SDS011;7388;51.078;13.740;2022-11-18T07:29:07;18.98;;;11.60;;
14603;SDS011;7388;51.078;13.740;2022-11-18T07:31:34;18.95;;;12.65;;
14603;SDS011;7388;51.078;13.740;2022-11-18T07:34:02;19.30;;;10.75;;
14603;SDS011;7388;51.078;13.740;2022-11-18T07:36:28;19.13;;;11.07;;
14603;SDS011;7388;51.078;13.740;2022-11-18T07:38:54;18.83;;;11.70;;
14603;SDS011;7388;51.078;13.740;2022-11-18T07:41:24;20.95;;;12.10;;
14603;SDS011;7388;51.078;13.740;2022-11-18T07:43:52;17.75;;;10.95;;
14603;SDS011;7388;51.078;13.740;2022-11-18T07:48:49;17.08;;;11.23;;
14603;SDS011;7388;51.078;13.740;2022-11-18T07:51:17;15.10;;;11.57;;
14603;SDS011;7388;51.078;13.740;2022-11-18T07:53:45;15.90;;;10.93;;
14603;SDS011;7388;51.078;13.740;2022-11-18T07:56:11;14.45;;;9.93;;
14603;SDS011;7388;51.078;13.740;2022-11-18T07:58:38;12.38;;;7.88;;
14603;SDS011;7388;51.078;13.740;2022-11-18T08:01:07;15.70;;;9.55;;
14603;SDS011;7388;51.078;13.740;2022-11-18T08:03:34;14.68;;;9.52;;
14603;SDS011;7388;51.078;13.740;2022-11-18T08:06:01;13.57;;;9.88;;
14603;SDS011;7388;51.078;13.740;2022-11-18T08:08:28;14.52;;;9.85;;
14603;SDS011;7388;51.078;13.740;2022-11-18T08:10:54;15.90;;;10.03;;
14603;SDS011;7388;51.078;13.740;2022-11-18T08:13:21;14.68;;;9.50;;
14603;SDS011;7388;51.078;13.740;2022-11-18T08:15:47;15.35;;;10.15;;
14603;SDS011;7388;51.078;13.740;2022-11-18T08:18:13;13.90;;;10.27;;
14603;SDS011;7388;51.078;13.740;2022-11-18T08:20:39;16.63;;;10.40;;
14603;SDS011;7388;51.078;13.740;2022-11-18T08:23:04;19.87;;;11.90;;
14603;SDS011;7388;51.078;13.740;2022-11-18T08:25:30;16.80;;;11.13;;
14603;SDS011;7388;51.078;13.740;2022-11-18T08:27:56;14.50;;;10.97;;
14603;SDS011;7388;51.078;13.740;2022-11-18T08:30:22;18.43;;;10.47;;
14603;SDS011;7388;51.078;13.740;2022-11-18T08:32:48;15.27;;;10.80;;
14603;SDS011;7388;51.078;13.740;2022-11-18T08:35:13;15.60;;;10.80;;
14603;SDS011;7388;51.078;13.740;2022-11-18T08:37:39;17.13;;;12.10;;
14603;SDS011;7388;51.078;13.740;2022-11-18T08:40:07;17.27;;;12.13;;
14603;SDS011;7388;51.078;13.740;2022-11-18T08:42:33;18.73;;;12.73;;
14603;SDS011;7388;51.078;13.740;2022-11-18T08:44:59;14.73;;;11.30;;
14603;SDS011;7388;51.078;13.740;2022-11-18T08:47:25;16.27;;;12.27;;
14603;SDS011;7388;51.078;13.740;2022-11-18T08:49:50;21.30;;;13.97;;
14603;SDS011;7388;51.078;13.740;2022-11-18T08:52:16;16.87;;;12.43;;
14603;SDS011;7388;51.078;13.740;2022-11-18T08:54:42;31.77;;;20.17;;
14603;SDS011;7388;51.078;13.740;2022-11-18T08:57:07;28.60;;;21.50;;
14603;SDS011;7388;51.078;13.740;2022-11-18T08:59:33;23.87;;;17.40;;
14603;SDS011;7388;51.078;13.740;2022-11-18T09:01:59;22.07;;;16.33;;
14603;SDS011;7388;51.078;13.740;2022-11-18T09:04:24;22.50;;;14.53;;
14603;SDS011;7388;51.078;13.740;2022-11-18T09:06:50;25.60;;;16.13;;
14603;SDS011;7388;51.078;13.740;2022-11-18T09:09:16;24.13;;;20.33;;
14603;SDS011;7388;51.078;13.740;2022-11-18T09:11:42;24.60;;;17.03;;
14603;SDS011;7388;51.078;13.740;2022-11-18T09:14:09;32.00;;;27.33;;
14603;SDS011;7388;51.078;13.740;2022-11-18T09:16:35;23.92;;;14.35;;
14603;SDS011;7388;51.078;13.740;2022-11-18T09:19:01;22.47;;;16.70;;
14603;SDS011;7388;51.078;13.740;2022-11-18T09:21:27;26.75;;;19.75;;
14603;SDS011;7388;51.078;13.740;2022-11-18T09:23:54;26.95;;;18.02;;
14603;SDS011;7388;51.078;13.740;2022-11-18T09:26:20;18.73;;;12.70;;
14603;SDS011;7388;51.078;13.740;2022-11-18T09:28:48;22.70;;;14.18;;
14603;SDS011;7388;51.078;13.740;2022-11-18T09:31:16;19.90;;;13.30;;
14603;SDS011;7388;51.078;13.740;2022-11-18T09:33:42;18.85;;;13.90;;
14603;SDS011;7388;51.078;13.740;2022-11-18T09:36:24;23.60;;;14.03;;
14603;SDS011;7388;51.078;13.740;2022-11-18T09:38:50;21.00;;;13.82;;
14603;SDS011;7388;51.078;13.740;2022-11-18T09:49:32;24.13;;;14.32;;
14603;SDS011;7388;51.078;13.740;2022-11-18T09:54:36;21.10;;;14.35;;
14603;SDS011;7388;51.078;13.740;2022-11-18T09:57:02;25.30;;;15.15;;
14603;SDS011;7388;51.078;13.740;2022-11-18T09:59:39;23.60;;;14.85;;
14603;SDS011;7388;51.078;13.740;2022-11-18T10:04:37;23.50;;;14.85;;
14603;SDS011;7388;51.078;13.740;2022-11-18T10:07:05;28.90;;;17.03;;
14603;SDS011;7388;51.078;13.740;2022-11-18T10:09:39;28.60;;;18.02;;
14603;SDS011;7388;51.078;13.740;2022-11-18T10:22:59;24.08;;;15.32;;
14603;SDS011;7388;51.078;13.740;2022-11-18T10:25:33;22.27;;;14.68;;
14603;SDS011;7388;51.078;13.740;2022-11-18T10:28:01;26.70;;;16.40;;
14603;SDS011;7388;51.078;13.740;2022-11-18T10:30:42;76.05;;;44.60;;
14603;SDS011;7388;51.078;13.740;2022-11-18T10:35:46;20.73;;;14.52;;
14603;SDS011;7388;51.078;13.740;2022-11-18T10:38:16;21.35;;;14.57;;
14603;SDS011;7388;51.078;13.740;2022-11-18T10:43:46;18.45;;;14.70;;
14603;SDS011;7388;51.078;13.740;2022-11-18T10:46:18;24.35;;;20.23;;
14603;SDS011;7388;51.078;13.740;2022-11-18T10:52:19;18.30;;;11.05;;
14603;SDS011;7388;51.078;13.740;2022-11-18T10:54:34;16.60;;;10.00;;
14603;SDS011;7388;51.078;13.740;2022-11-18T11:02:47;15.68;;;11.75;;
14603;SDS011;7388;51.078;13.740;2022-11-18T11:04:55;17.80;;;12.38;;
14603;SDS011;7388;51.078;13.740;2022-11-18T11:07:39;18.52;;;11.95;;
14603;SDS011;7388;51.078;13.740;2022-11-18T11:12:31;18.97;;;12.23;;
14603;SDS011;7388;51.078;13.740;2022-11-18T11:15:00;21.92;;;13.57;;
14603;SDS011;7388;51.078;13.740;2022-11-18T11:17:35;19.58;;;13.35;;
14603;SDS011;7388;51.078;13.740;2022-11-18T11:20:36;17.67;;;11.63;;
14603;SDS011;7388;51.078;13.740;2022-11-18T11:23:12;19.55;;;12.70;;
14603;SDS011;7388;51.078;13.740;2022-11-18T11:25:48;25.73;;;14.57;;
14603;SDS011;7388;51.078;13.740;2022-11-18T11:36:07;17.75;;;13.52;;
14603;SDS011;7388;51.078;13.740;2022-11-18T11:50:18;20.40;;;15.02;;
14603;SDS011;7388;51.078;13.740;2022-11-18T11:53:19;19.27;;;14.00;;
14603;SDS011;7388;51.078;13.740;2022-11-18T12:06:39;25.90;;;17.02;;
14603;SDS011;7388;51.078;13.740;2022-11-18T12:14:52;25.42;;;16.83;;
14603;SDS011;7388;51.078;13.740;2022-11-18T12:17:27;26.20;;;16.42;;
14603;SDS011;7388;51.078;13.740;2022-11-18T12:19:58;28.52;;;18.40;;
14603;SDS011;7388;51.078;13.740;2022-11-18T12:22:44;23.83;;;16.57;;
14603;SDS011;7388;51.078;13.740;2022-11-18T12:28:25;28.90;;;18.75;;
14603;SDS011;7388;51.078;13.740;2022-11-18T12:33:50;27.67;;;17.50;;
14603;SDS011;7388;51.078;13.740;2022-11-18T12:36:29;28.85;;;18.92;;
14603;SDS011;7388;51.078;13.740;2022-11-18T12:38:56;30.90;;;17.92;;
14603;SDS011;7388;51.078;13.740;2022-11-18T12:44:23;29.10;;;18.77;;
14603;SDS011;7388;51.078;13.740;2022-11-18T12:46:54;26.38;;;17.90;;
14603;SDS011;7388;51.078;13.740;2022-11-18T12:51:56;32.47;;;19.53;;
14603;SDS011;7388;51.078;13.740;2022-11-18T12:54:38;27.55;;;18.88;;
14603;SDS011;7388;51.078;13.740;2022-11-18T12:59:44;31.02;;;19.88;;
14603;SDS011;7388;51.078;13.740;2022-11-18T13:04:36;31.67;;;20.73;;
14603;SDS011;7388;51.078;13.740;2022-11-18T13:07:03;35.15;;;21.45;;
14603;SDS011;7388;51.078;13.740;2022-11-18T13:09:51;35.03;;;21.58;;
14603;SDS011;7388;51.078;13.740;2022-11-18T13:12:17;33.80;;;21.08;;
14603;SDS011;7388;51.078;13.740;2022-11-18T13:14:43;33.15;;;20.73;;
14603;SDS011;7388;51.078;13.740;2022-11-18T13:17:32;33.13;;;20.48;;
14603;SDS011;7388;51.078;13.740;2022-11-18T13:25:43;33.47;;;22.15;;
14603;SDS011;7388;51.078;13.740;2022-11-18T13:30:47;30.13;;;20.30;;
14603;SDS011;7388;51.078;13.740;2022-11-18T13:33:20;36.08;;;21.08;;
14603;SDS011;7388;51.078;13.740;2022-11-18T13:35:46;33.60;;;20.23;;
14603;SDS011;7388;51.078;13.740;2022-11-18T13:38:30;28.30;;;19.03;;
14603;SDS011;7388;51.078;13.740;2022-11-18T13:40:56;31.63;;;21.35;;
14603;SDS011;7388;51.078;13.740;2022-11-18T13:43:38;33.17;;;21.50;;
14603;SDS011;7388;51.078;13.740;2022-11-18T13:46:12;32.80;;;20.63;;
14603;SDS011;7388;51.078;13.740;2022-11-18T13:48:44;35.10;;;21.73;;
14603;SDS011;7388;51.078;13.740;2022-11-18T13:51:17;26.67;;;19.95;;
14603;SDS011;7388;51.078;13.740;2022-11-18T13:53:43;32.95;;;20.95;;
14603;SDS011;7388;51.078;13.740;2022-11-18T14:06:10;32.97;;;19.92;;
14603;SDS011;7388;51.078;13.740;2022-11-18T14:08:36;30.63;;;20.42;;
14603;SDS011;7388;51.078;13.740;2022-11-18T14:11:04;32.92;;;20.25;;
14603;SDS011;7388;51.078;13.740;2022-11-18T14:13:34;31.85;;;19.52;;
14603;SDS011;7388;51.078;13.740;2022-11-18T14:16:02;27.15;;;19.38;;
14603;SDS011;7388;51.078;13.740;2022-11-18T14:18:48;29.58;;;19.23;;
14603;SDS011;7388;51.078;13.740;2022-11-18T14:21:28;38.53;;;29.50;;
14603;SDS011;7388;51.078;13.740;2022-11-18T14:23:56;37.15;;;27.85;;
14603;SDS011;7388;51.078;13.740;2022-11-18T14:26:33;29.02;;;21.10;;
14603;SDS011;7388;51.078;13.740;2022-11-18T14:29:02;33.65;;;23.08;;
14603;SDS011;7388;51.078;13.740;2022-11-18T14:32:00;32.53;;;23.80;;
14603;SDS011;7388;51.078;13.740;2022-11-18T14:34:56;28.58;;;22.55;;
14603;SDS011;7388;51.078;13.740;2022-11-18T14:37:25;38.00;;;26.63;;
14603;SDS011;7388;51.078;13.740;2022-11-18T14:39:54;30.05;;;19.63;;
14603;SDS011;7388;51.078;13.740;2022-11-18T14:42:22;31.00;;;19.92;;
14603;SDS011;7388;51.078;13.740;2022-11-18T14:44:49;30.45;;;22.17;;
14603;SDS011;7388;51.078;13.740;2022-11-18T14:47:25;31.92;;;19.98;;
14603;SDS011;7388;51.078;13.740;2022-11-18T14:49:52;30.98;;;21.80;;
14603;SDS011;7388;51.078;13.740;2022-11-18T14:52:18;34.07;;;24.63;;
14603;SDS011;7388;51.078;13.740;2022-11-18T14:54:44;34.20;;;22.98;;
14603;SDS011;7388;51.078;13.740;2022-11-18T14:57:11;32.60;;;24.47;;
14603;SDS011;7388;51.078;13.740;2022-11-18T14:59:40;29.95;;;20.20;;
14603;SDS011;7388;51.078;13.740;2022-11-18T15:02:10;29.50;;;22.33;;
14603;SDS011;7388;51.078;13.740;2022-11-18T15:04:39;32.60;;;22.13;;
14603;SDS011;7388;51.078;13.740;2022-11-18T15:09:30;34.40;;;22.10;;
14603;SDS011;7388;51.078;13.740;2022-11-18T15:11:56;31.00;;;24.03;;
14603;SDS011;7388;51.078;13.740;2022-11-18T15:14:22;32.30;;;25.07;;
14603;SDS011;7388;51.078;13.740;2022-11-18T15:16:48;34.57;;;21.67;;
14603;SDS011;7388;51.078;13.740;2022-11-18T15:19:14;33.50;;;21.07;;
14603;SDS011;7388;51.078;13.740;2022-11-18T15:21:40;31.50;;;20.30;;
14603;SDS011;7388;51.078;13.740;2022-11-18T15:24:06;30.83;;;22.83;;
14603;SDS011;7388;51.078;13.740;2022-11-18T15:26:37;30.20;;;19.97;;
14603;SDS011;7388;51.078;13.740;2022-11-18T15:29:05;31.35;;;21.63;;
14603;SDS011;7388;51.078;13.740;2022-11-18T15:31:35;32.50;;;20.67;;
14603;SDS011;7388;51.078;13.740;2022-11-18T15:34:00;31.70;;;21.40;;
14603;SDS011;7388;51.078;13.740;2022-11-18T15:36:26;47.20;;;36.20;;
14603;SDS011;7388;51.078;13.740;2022-11-18T15:38:52;32.67;;;22.00;;
14603;SDS011;7388;51.078;13.740;2022-11-18T15:41:20;35.75;;;22.08;;
14603;SDS011;7388;51.078;13.740;2022-11-18T15:43:51;33.58;;;22.50;;
14603;SDS011;7388;51.078;13.740;2022-11-18T15:46:18;34.63;;;21.30;;
14603;SDS011;7388;51.078;13.740;2022-11-18T15:48:45;41.25;;;23.95;;
14603;SDS011;7388;51.078;13.740;2022-11-18T15:51:12;38.67;;;23.98;;
14603;SDS011;7388;51.078;13.740;2022-11-18T15:53:38;33.15;;;23.92;;
14603;SDS011;7388;51.078;13.740;2022-11-18T15:58:39;31.23;;;20.58;;
14603;SDS011;7388;51.078;13.740;2022-11-18T16:01:05;32.40;;;20.40;;
14603;SDS011;7388;51.078;13.740;2022-11-18T16:03:30;32.53;;;22.10;;
14603;SDS011;7388;51.078;13.740;2022-11-18T16:05:57;34.33;;;22.50;;
14603;SDS011;7388;51.078;13.740;2022-11-18T16:08:23;40.33;;;23.13;;
14603;SDS011;7388;51.078;13.740;2022-11-18T16:10:53;32.73;;;22.57;;
14603;SDS011;7388;51.078;13.740;2022-11-18T16:13:38;34.25;;;21.52;;
14603;SDS011;7388;51.078;13.740;2022-11-18T16:16:04;33.43;;;21.70;;
14603;SDS011;7388;51.078;13.740;2022-11-18T16:18:30;36.40;;;22.90;;
14603;SDS011;7388;51.078;13.740;2022-11-18T16:20:59;34.53;;;22.20;;
14603;SDS011;7388;51.078;13.740;2022-11-18T16:23:25;35.00;;;22.88;;
14603;SDS011;7388;51.078;13.740;2022-11-18T16:25:54;44.45;;;22.65;;
14603;SDS011;7388;51.078;13.740;2022-11-18T16:28:20;40.42;;;22.58;;
14603;SDS011;7388;51.078;13.740;2022-11-18T16:30:49;33.03;;;20.83;;
14603;SDS011;7388;51.078;13.740;2022-11-18T16:33:33;30.60;;;20.63;;
14603;SDS011;7388;51.078;13.740;2022-11-18T16:35:59;40.77;;;22.90;;
14603;SDS011;7388;51.078;13.740;2022-11-18T16:38:25;33.03;;;20.47;;
14603;SDS011;7388;51.078;13.740;2022-11-18T16:40:57;30.80;;;22.23;;
14603;SDS011;7388;51.078;13.740;2022-11-18T16:43:23;34.30;;;21.27;;
14603;SDS011;7388;51.078;13.740;2022-11-18T16:45:52;34.90;;;21.33;;
14603;SDS011;7388;51.078;13.740;2022-11-18T16:48:19;28.30;;;19.33;;
14603;SDS011;7388;51.078;13.740;2022-11-18T16:51:47;26.08;;;18.00;;